This is the latest recevied weather packets stored in our database for station/object W4ZHA. If no packets are shown the sender has not sent any weather packets the latest 10 day(s).
| Time | Temp. | Humidity | Pressure | Rain* | Wind** | Luminosity | Snow |
|---|---|---|---|---|---|---|---|
| 1777491208 | 27.78° C | 58% | 1011 hPa | 0 mm | - | 531 W/m² | - |
| 1777490904 | 27.78° C | 58% | 1011 hPa | 0 mm | - | 560 W/m² | - |
| 1777490600 | 27.78° C | 60% | 1011.3 hPa | 0 mm | - | 531 W/m² | - |
| 1777490296 | 27.22° C | 58% | 1011.6 hPa | 0 mm | - | 524 W/m² | - |
| 1777489994 | 27.22° C | 56% | 1011.3 hPa | 0 mm | - | 524 W/m² | - |
| 1777489692 | 26.67° C | 58% | 1011.3 hPa | 0 mm | - | 531 W/m² | - |
| 1777489388 | 27.22° C | 59% | 1011.3 hPa | 0 mm | - | 532 W/m² | - |
| 1777489085 | 27.78° C | 58% | 1011.3 hPa | 0 mm | - | 536 W/m² | - |
| 1777488781 | 26.67° C | 60% | 1011.6 hPa | 0 mm | - | 546 W/m² | - |
| 1777488480 | 27.78° C | 58% | 1011.3 hPa | 0 mm | - | 524 W/m² | - |
| 1777488177 | 26.67° C | 61% | 1011.3 hPa | 0 mm | - | 514 W/m² | - |
| 1777487875 | 26.67° C | 61% | 1011.3 hPa | 0 mm | - | 508 W/m² | - |
| 1777487573 | 26.67° C | 60% | 1011.3 hPa | 0 mm | - | 525 W/m² | - |
| 1777487270 | 26.67° C | 60% | 1011.3 hPa | 0 mm | - | 519 W/m² | - |
| 1777486966 | 26.67° C | 61% | 1011.6 hPa | 0 mm | - | 505 W/m² | - |
| 1777486663 | 26.67° C | 61% | 1011.3 hPa | 0 mm | - | 522 W/m² | - |
| 1777486361 | 26.11° C | 61% | 1011.6 hPa | 0 mm | - | 519 W/m² | - |
| 1777486058 | 26.67° C | 61% | 1011.6 hPa | 0 mm | - | 413 W/m² | - |
| 1777485754 | 25.56° C | 65% | 1011.6 hPa | 0 mm | - | 517 W/m² | - |
| 1777485450 | 25.56° C | 65% | 1011.6 hPa | 0 mm | - | 179 W/m² | - |
| 1777485146 | 25.56° C | 65% | 1011.6 hPa | 0 mm | - | 515 W/m² | - |
| 1777484842 | 25° C | 65% | 1011.6 hPa | 0 mm | - | 500 W/m² | - |
| 1777484540 | 24.44° C | 66% | 1011.6 hPa | 0 mm | - | 478 W/m² | - |
| 1777484236 | 24.44° C | 66% | 1011.6 hPa | 0 mm | - | 464 W/m² | - |
| 1777483933 | 25° C | 65% | 1012 hPa | 0 mm | - | 314 W/m² | - |
* Rain latest hour (hover to see other rain measurements)
** Current wind speed in m/s (hover to see current wind gust speed)